sensor_id;sensor_type;location;lat;lon;timestamp;pressure;altitude;pressure_sealevel;temperature;humidity
63439;BME280;49567;48.958;8.294;2023-04-06T00:02:14;100647.34;;;6.09;50.75
63439;BME280;49567;48.958;8.294;2023-04-06T00:04:40;100644.06;;;6.07;51.24
63439;BME280;49567;48.958;8.294;2023-04-06T00:07:05;100639.50;;;6.08;50.89
63439;BME280;49567;48.958;8.294;2023-04-06T00:09:31;100640.34;;;6.08;51.19
63439;BME280;49567;48.958;8.294;2023-04-06T00:11:56;100651.28;;;6.07;51.46
63439;BME280;49567;48.958;8.294;2023-04-06T00:14:23;100644.28;;;6.06;51.39
63439;BME280;49567;48.958;8.294;2023-04-06T00:16:48;100641.38;;;6.07;51.80
63439;BME280;49567;48.958;8.294;2023-04-06T00:19:13;100639.69;;;6.06;51.85
63439;BME280;49567;48.958;8.294;2023-04-06T00:21:38;100636.59;;;6.09;51.65
63439;BME280;49567;48.958;8.294;2023-04-06T00:24:04;100634.28;;;6.13;51.52
63439;BME280;49567;48.958;8.294;2023-04-06T00:26:29;100636.38;;;6.11;51.85
63439;BME280;49567;48.958;8.294;2023-04-06T00:28:55;100639.28;;;6.09;51.93
63439;BME280;49567;48.958;8.294;2023-04-06T00:31:20;100635.97;;;6.07;52.18
63439;BME280;49567;48.958;8.294;2023-04-06T00:33:45;100632.69;;;6.05;51.74
63439;BME280;49567;48.958;8.294;2023-04-06T00:36:10;100632.28;;;6.02;51.90
63439;BME280;49567;48.958;8.294;2023-04-06T00:38:36;100639.53;;;5.95;51.96
63439;BME280;49567;48.958;8.294;2023-04-06T00:41:03;100641.22;;;5.89;51.90
63439;BME280;49567;48.958;8.294;2023-04-06T00:43:28;100630.22;;;5.84;51.50
63439;BME280;49567;48.958;8.294;2023-04-06T00:45:54;100634.56;;;5.79;51.99
63439;BME280;49567;48.958;8.294;2023-04-06T00:48:19;100629.19;;;5.72;51.94
63439;BME280;49567;48.958;8.294;2023-04-06T00:50:44;100632.31;;;5.69;52.30
63439;BME280;49567;48.958;8.294;2023-04-06T00:53:09;100628.56;;;5.63;52.22
63439;BME280;49567;48.958;8.294;2023-04-06T00:55:35;100630.84;;;5.60;52.37
63439;BME280;49567;48.958;8.294;2023-04-06T00:58:01;100622.41;;;5.56;52.18
63439;BME280;49567;48.958;8.294;2023-04-06T01:00:26;100631.09;;;5.52;52.05
63439;BME280;49567;48.958;8.294;2023-04-06T01:02:52;100622.19;;;5.45;52.16
63439;BME280;49567;48.958;8.294;2023-04-06T01:05:17;100624.28;;;5.36;52.04
63439;BME280;49567;48.958;8.294;2023-04-06T01:07:43;100622.59;;;5.29;52.02
63439;BME280;49567;48.958;8.294;2023-04-06T01:10:08;100624.28;;;5.23;52.30
63439;BME280;49567;48.958;8.294;2023-04-06T01:12:34;100631.69;;;5.21;51.84
63439;BME280;49567;48.958;8.294;2023-04-06T01:14:59;100628.38;;;5.19;51.90
63439;BME280;49567;48.958;8.294;2023-04-06T01:17:25;100632.09;;;5.18;51.73
63439;BME280;49567;48.958;8.294;2023-04-06T01:19:50;100618.66;;;5.18;51.92
63439;BME280;49567;48.958;8.294;2023-04-06T01:22:19;100625.91;;;5.17;51.67
63439;BME280;49567;48.958;8.294;2023-04-06T01:24:45;100617.84;;;5.17;51.76
63439;BME280;49567;48.958;8.294;2023-04-06T01:27:10;100617.41;;;5.14;51.80
63439;BME280;49567;48.958;8.294;2023-04-06T01:29:36;100606.47;;;5.15;51.94
63439;BME280;49567;48.958;8.294;2023-04-06T01:32:01;100606.91;;;5.12;51.80
63439;BME280;49567;48.958;8.294;2023-04-06T01:34:26;100604.41;;;5.11;52.08
63439;BME280;49567;48.958;8.294;2023-04-06T01:36:52;100598.84;;;5.12;51.86
63439;BME280;49567;48.958;8.294;2023-04-06T01:39:17;100602.78;;;5.10;51.82
63439;BME280;49567;48.958;8.294;2023-04-06T01:41:42;100598.19;;;5.10;52.19
63439;BME280;49567;48.958;8.294;2023-04-06T01:44:08;100601.09;;;5.09;52.07
63439;BME280;49567;48.958;8.294;2023-04-06T01:46:33;100602.34;;;5.06;51.88
63439;BME280;49567;48.958;8.294;2023-04-06T01:48:58;100602.97;;;5.02;52.05
63439;BME280;49567;48.958;8.294;2023-04-06T01:51:23;100599.84;;;4.98;52.25
63439;BME280;49567;48.958;8.294;2023-04-06T01:53:50;100593.88;;;4.96;51.96
63439;BME280;49567;48.958;8.294;2023-04-06T01:56:16;100588.91;;;4.93;52.49
63439;BME280;49567;48.958;8.294;2023-04-06T01:58:41;100582.06;;;4.91;52.92
63439;BME280;49567;48.958;8.294;2023-04-06T02:01:07;100596.75;;;4.88;53.00
63439;BME280;49567;48.958;8.294;2023-04-06T02:03:32;100596.13;;;4.86;53.09
63439;BME280;49567;48.958;8.294;2023-04-06T02:05:57;100590.75;;;4.86;52.96
63439;BME280;49567;48.958;8.294;2023-04-06T02:08:22;100596.97;;;4.87;52.92
63439;BME280;49567;48.958;8.294;2023-04-06T02:10:48;100595.47;;;4.84;52.53
63439;BME280;49567;48.958;8.294;2023-04-06T02:13:13;100598.38;;;4.83;53.03
63439;BME280;49567;48.958;8.294;2023-04-06T02:15:38;100593.03;;;4.83;53.03
63439;BME280;49567;48.958;8.294;2023-04-06T02:18:04;100594.88;;;4.82;52.79
63439;BME280;49567;48.958;8.294;2023-04-06T02:20:29;100589.72;;;4.81;53.09
63439;BME280;49567;48.958;8.294;2023-04-06T02:22:56;100586.00;;;4.82;53.46
63439;BME280;49567;48.958;8.294;2023-04-06T02:25:21;100585.81;;;4.83;54.10
63439;BME280;49567;48.958;8.294;2023-04-06T02:27:47;100577.53;;;4.85;54.18
63439;BME280;49567;48.958;8.294;2023-04-06T02:30:12;100580.03;;;4.86;54.15
63439;BME280;49567;48.958;8.294;2023-04-06T02:32:37;100574.00;;;4.84;54.28
63439;BME280;49567;48.958;8.294;2023-04-06T02:35:03;100577.31;;;4.73;54.89
63439;BME280;49567;48.958;8.294;2023-04-06T02:37:28;100582.88;;;4.71;55.13
63439;BME280;49567;48.958;8.294;2023-04-06T02:39:53;100581.00;;;4.72;55.53
63439;BME280;49567;48.958;8.294;2023-04-06T02:42:18;100578.16;;;4.74;55.45
63439;BME280;49567;48.958;8.294;2023-04-06T02:44:44;100579.16;;;4.72;55.37
63439;BME280;49567;48.958;8.294;2023-04-06T02:47:09;100583.50;;;4.74;55.48
63439;BME280;49567;48.958;8.294;2023-04-06T02:49:35;100583.28;;;4.75;55.44
63439;BME280;49567;48.958;8.294;2023-04-06T02:52:01;100589.09;;;4.79;55.71
63439;BME280;49567;48.958;8.294;2023-04-06T02:54:27;100581.84;;;4.79;55.51
63439;BME280;49567;48.958;8.294;2023-04-06T02:56:52;100578.34;;;4.79;55.76
63439;BME280;49567;48.958;8.294;2023-04-06T02:59:17;100580.00;;;4.73;55.97
63439;BME280;49567;48.958;8.294;2023-04-06T03:01:43;100575.22;;;4.68;55.78
63439;BME280;49567;48.958;8.294;2023-04-06T03:04:08;100573.59;;;4.67;56.04
63439;BME280;49567;48.958;8.294;2023-04-06T03:06:33;100575.03;;;4.70;56.15
63439;BME280;49567;48.958;8.294;2023-04-06T03:08:59;100574.41;;;4.68;55.87
63439;BME280;49567;48.958;8.294;2023-04-06T03:11:24;100570.28;;;4.65;55.57
63439;BME280;49567;48.958;8.294;2023-04-06T03:13:51;100576.28;;;4.67;55.92
63439;BME280;49567;48.958;8.294;2023-04-06T03:16:16;100576.28;;;4.67;55.72
63439;BME280;49567;48.958;8.294;2023-04-06T03:18:41;100568.41;;;4.66;55.80
63439;BME280;49567;48.958;8.294;2023-04-06T03:21:07;100573.97;;;4.64;56.03
63439;BME280;49567;48.958;8.294;2023-04-06T03:23:32;100576.47;;;4.66;55.99
63439;BME280;49567;48.958;8.294;2023-04-06T03:25:57;100575.63;;;4.65;56.39
63439;BME280;49567;48.958;8.294;2023-04-06T03:28:23;100571.94;;;4.66;56.31
63439;BME280;49567;48.958;8.294;2023-04-06T03:30:48;100574.81;;;4.65;56.42
63439;BME280;49567;48.958;8.294;2023-04-06T03:33:14;100572.94;;;4.65;56.48
63439;BME280;49567;48.958;8.294;2023-04-06T03:35:39;100575.03;;;4.63;56.13
63439;BME280;49567;48.958;8.294;2023-04-06T03:38:05;100572.09;;;4.58;56.34
63439;BME280;49567;48.958;8.294;2023-04-06T03:40:30;100575.59;;;4.52;56.70
63439;BME280;49567;48.958;8.294;2023-04-06T03:42:56;100579.53;;;4.50;56.90
63439;BME280;49567;48.958;8.294;2023-04-06T03:45:21;100581.38;;;4.43;56.85
63439;BME280;49567;48.958;8.294;2023-04-06T03:47:47;100574.75;;;4.39;56.46
63439;BME280;49567;48.958;8.294;2023-04-06T03:50:12;100580.31;;;4.37;56.40
63439;BME280;49567;48.958;8.294;2023-04-06T03:52:37;100583.19;;;4.36;56.53
63439;BME280;49567;48.958;8.294;2023-04-06T03:55:03;100580.50;;;4.36;56.81
63439;BME280;49567;48.958;8.294;2023-04-06T03:57:28;100583.00;;;4.37;56.70
63439;BME280;49567;48.958;8.294;2023-04-06T03:59:53;100587.13;;;4.40;56.62
63439;BME280;49567;48.958;8.294;2023-04-06T04:02:19;100593.34;;;4.40;56.97
63439;BME280;49567;48.958;8.294;2023-04-06T04:04:44;100594.16;;;4.41;56.90
63439;BME280;49567;48.958;8.294;2023-04-06T04:07:10;100586.31;;;4.39;56.86
63439;BME280;49567;48.958;8.294;2023-04-06T04:09:36;100598.06;;;4.38;56.91
63439;BME280;49567;48.958;8.294;2023-04-06T04:12:02;100599.09;;;4.37;56.72
63439;BME280;49567;48.958;8.294;2023-04-06T04:14:27;100596.59;;;4.36;57.12
63439;BME280;49567;48.958;8.294;2023-04-06T04:16:52;100603.81;;;4.35;56.77
63439;BME280;49567;48.958;8.294;2023-04-06T04:19:18;100606.91;;;4.32;56.69
63439;BME280;49567;48.958;8.294;2023-04-06T04:21:44;100607.97;;;4.31;56.85
63439;BME280;49567;48.958;8.294;2023-04-06T04:24:10;100607.13;;;4.31;56.70
63439;BME280;49567;48.958;8.294;2023-04-06T04:26:35;100611.66;;;4.30;56.91
63439;BME280;49567;48.958;8.294;2023-04-06T04:29:01;100616.63;;;4.33;57.22
63439;BME280;49567;48.958;8.294;2023-04-06T04:31:26;100608.56;;;4.33;56.88
63439;BME280;49567;48.958;8.294;2023-04-06T04:33:51;100613.31;;;4.31;57.38
63439;BME280;49567;48.958;8.294;2023-04-06T04:36:16;100615.56;;;4.28;57.14
63439;BME280;49567;48.958;8.294;2023-04-06T04:38:42;100619.47;;;4.25;57.08
63439;BME280;49567;48.958;8.294;2023-04-06T04:41:07;100617.63;;;4.26;57.31
63439;BME280;49567;48.958;8.294;2023-04-06T04:43:32;100618.44;;;4.26;57.30
63439;BME280;49567;48.958;8.294;2023-04-06T04:45:57;100620.50;;;4.24;56.98
63439;BME280;49567;48.958;8.294;2023-04-06T04:48:24;100623.19;;;4.24;56.71
63439;BME280;49567;48.958;8.294;2023-04-06T04:50:49;100615.56;;;4.28;56.38
63439;BME280;49567;48.958;8.294;2023-04-06T04:53:14;100617.22;;;4.29;56.95
63439;BME280;49567;48.958;8.294;2023-04-06T04:55:40;100618.03;;;4.29;56.42
63439;BME280;49567;48.958;8.294;2023-04-06T04:58:05;100618.25;;;4.28;57.00
63439;BME280;49567;48.958;8.294;2023-04-06T05:00:31;100619.91;;;4.29;56.90
63439;BME280;49567;48.958;8.294;2023-04-06T05:02:56;100628.78;;;4.29;56.87
63439;BME280;49567;48.958;8.294;2023-04-06T05:05:21;100629.59;;;4.30;56.71
63439;BME280;49567;48.958;8.294;2023-04-06T05:07:47;100634.34;;;4.28;56.60
63439;BME280;49567;48.958;8.294;2023-04-06T05:10:12;100641.31;;;4.22;56.69
63439;BME280;49567;48.958;8.294;2023-04-06T05:12:37;100641.28;;;4.15;56.76
63439;BME280;49567;48.958;8.294;2023-04-06T05:15:03;100640.06;;;4.11;56.90
63439;BME280;49567;48.958;8.294;2023-04-06T05:17:28;100642.09;;;4.09;57.02
63439;BME280;49567;48.958;8.294;2023-04-06T05:19:54;100639.63;;;4.08;56.90
63439;BME280;49567;48.958;8.294;2023-04-06T05:22:19;100651.56;;;4.05;56.56
63439;BME280;49567;48.958;8.294;2023-04-06T05:24:45;100651.13;;;4.02;56.73
63439;BME280;49567;48.958;8.294;2023-04-06T05:27:10;100654.84;;;4.01;56.56
63439;BME280;49567;48.958;8.294;2023-04-06T05:29:35;100652.78;;;4.03;56.94
63439;BME280;49567;48.958;8.294;2023-04-06T05:32:01;100656.91;;;4.05;56.71
63439;BME280;49567;48.958;8.294;2023-04-06T05:34:26;100656.72;;;4.07;56.93
63439;BME280;49567;48.958;8.294;2023-04-06T05:36:51;100663.38;;;4.11;56.78
63439;BME280;49567;48.958;8.294;2023-04-06T05:39:17;100656.78;;;4.13;57.09
63439;BME280;49567;48.958;8.294;2023-04-06T05:41:42;100665.03;;;4.18;57.23
63439;BME280;49567;48.958;8.294;2023-04-06T05:44:07;100660.09;;;4.22;56.69
63439;BME280;49567;48.958;8.294;2023-04-06T05:46:33;100666.34;;;4.29;56.75
63439;BME280;49567;48.958;8.294;2023-04-06T05:48:58;100659.56;;;4.33;56.66
63439;BME280;49567;48.958;8.294;2023-04-06T05:51:23;100654.63;;;4.37;57.05
63439;BME280;49567;48.958;8.294;2023-04-06T05:53:48;100662.25;;;4.40;56.92
63439;BME280;49567;48.958;8.294;2023-04-06T05:56:14;100659.38;;;4.41;56.98
63439;BME280;49567;48.958;8.294;2023-04-06T05:58:39;100659.19;;;4.43;57.05
63439;BME280;49567;48.958;8.294;2023-04-06T06:01:04;100658.19;;;4.50;57.30
63439;BME280;49567;48.958;8.294;2023-04-06T06:03:30;100657.56;;;4.55;56.92
63439;BME280;49567;48.958;8.294;2023-04-06T06:06:02;100658.00;;;4.65;56.90
63439;BME280;49567;48.958;8.294;2023-04-06T06:08:28;100658.03;;;4.71;56.87
63439;BME280;49567;48.958;8.294;2023-04-06T06:10:53;100658.28;;;4.77;56.88
63439;BME280;49567;48.958;8.294;2023-04-06T06:13:19;100660.56;;;4.86;57.02
63439;BME280;49567;48.958;8.294;2023-04-06T06:15:44;100661.41;;;4.93;56.86
63439;BME280;49567;48.958;8.294;2023-04-06T06:18:10;100663.88;;;4.88;57.24
63439;BME280;49567;48.958;8.294;2023-04-06T06:20:35;100665.97;;;4.93;57.42
63439;BME280;49567;48.958;8.294;2023-04-06T06:23:00;100652.97;;;5.03;57.31
63439;BME280;49567;48.958;8.294;2023-04-06T06:25:26;100657.34;;;5.17;57.10
63439;BME280;49567;48.958;8.294;2023-04-06T06:27:51;100654.25;;;5.27;57.16
63439;BME280;49567;48.958;8.294;2023-04-06T06:30:16;100664.78;;;5.35;56.84
63439;BME280;49567;48.958;8.294;2023-04-06T06:32:41;100663.13;;;5.40;57.19
63439;BME280;49567;48.958;8.294;2023-04-06T06:35:07;100655.88;;;5.54;57.35
63439;BME280;49567;48.958;8.294;2023-04-06T06:37:32;100651.31;;;5.67;56.49
63439;BME280;49567;48.958;8.294;2023-04-06T06:39:58;100650.91;;;5.77;56.71
63439;BME280;49567;48.958;8.294;2023-04-06T06:42:23;100645.75;;;5.82;56.66
63439;BME280;49567;48.958;8.294;2023-04-06T06:44:48;100657.97;;;5.91;56.48
63439;BME280;49567;48.958;8.294;2023-04-06T06:47:13;100659.81;;;5.91;56.48
63439;BME280;49567;48.958;8.294;2023-04-06T06:49:39;100654.44;;;5.91;56.35
63439;BME280;49567;48.958;8.294;2023-04-06T06:52:04;100647.81;;;5.93;56.45
63439;BME280;49567;48.958;8.294;2023-04-06T06:54:29;100650.47;;;6.00;56.19
63439;BME280;49567;48.958;8.294;2023-04-06T06:56:54;100651.31;;;6.00;55.97
63439;BME280;49567;48.958;8.294;2023-04-06T06:59:20;100651.13;;;5.95;55.97
63439;BME280;49567;48.958;8.294;2023-04-06T07:01:45;100662.06;;;6.07;56.21
63439;BME280;49567;48.958;8.294;2023-04-06T07:04:11;100658.31;;;6.14;55.86
63439;BME280;49567;48.958;8.294;2023-04-06T07:06:36;100657.72;;;6.12;56.03
63439;BME280;49567;48.958;8.294;2023-04-06T07:09:02;100652.09;;;6.20;55.58
63439;BME280;49567;48.958;8.294;2023-04-06T07:11:28;100650.19;;;6.34;55.26
63439;BME280;49567;48.958;8.294;2023-04-06T07:13:53;100643.75;;;6.42;54.91
63439;BME280;49567;48.958;8.294;2023-04-06T07:16:19;100647.84;;;6.51;54.97
63439;BME280;49567;48.958;8.294;2023-04-06T07:18:44;100645.94;;;6.58;54.96
63439;BME280;49567;48.958;8.294;2023-04-06T07:21:10;100650.41;;;6.77;54.42
63439;BME280;49567;48.958;8.294;2023-04-06T07:23:35;100647.75;;;7.02;53.15
63439;BME280;49567;48.958;8.294;2023-04-06T07:26:00;100652.03;;;7.16;52.78
63439;BME280;49567;48.958;8.294;2023-04-06T07:28:26;100651.63;;;7.12;52.54
63439;BME280;49567;48.958;8.294;2023-04-06T07:30:51;100643.81;;;7.04;52.96
63439;BME280;49567;48.958;8.294;2023-04-06T07:33:16;100641.97;;;6.98;53.25
63439;BME280;49567;48.958;8.294;2023-04-06T07:35:42;100645.31;;;7.00;53.66
63439;BME280;49567;48.958;8.294;2023-04-06T07:38:07;100648.00;;;7.00;53.20
63439;BME280;49567;48.958;8.294;2023-04-06T07:40:32;100645.50;;;6.99;53.64
63439;BME280;49567;48.958;8.294;2023-04-06T07:42:58;100648.38;;;7.04;53.74
63439;BME280;49567;48.958;8.294;2023-04-06T07:45:23;100646.47;;;7.11;53.52
63439;BME280;49567;48.958;8.294;2023-04-06T07:47:48;100652.22;;;7.21;53.11
63439;BME280;49567;48.958;8.294;2023-04-06T07:50:14;100655.91;;;7.26;53.22
63439;BME280;49567;48.958;8.294;2023-04-06T07:52:40;100660.38;;;7.39;52.93
63439;BME280;49567;48.958;8.294;2023-04-06T07:55:05;100657.84;;;7.44;52.72
63439;BME280;49567;48.958;8.294;2023-04-06T07:57:31;100657.16;;;7.49;52.86
63439;BME280;49567;48.958;8.294;2023-04-06T07:59:56;100653.16;;;7.58;52.57
63439;BME280;49567;48.958;8.294;2023-04-06T08:02:21;100652.28;;;7.64;52.50
63439;BME280;49567;48.958;8.294;2023-04-06T08:04:47;100659.50;;;7.70;52.13
63439;BME280;49567;48.958;8.294;2023-04-06T08:07:12;100661.25;;;7.82;51.73
63439;BME280;49567;48.958;8.294;2023-04-06T08:09:37;100654.69;;;7.97;51.78
63439;BME280;49567;48.958;8.294;2023-04-06T08:12:03;100658.88;;;8.11;51.64
63439;BME280;49567;48.958;8.294;2023-04-06T08:14:28;100660.38;;;8.25;51.27
63439;BME280;49567;48.958;8.294;2023-04-06T08:16:54;100652.03;;;8.33;51.46
63439;BME280;49567;48.958;8.294;2023-04-06T08:19:19;100653.13;;;8.44;51.26
63439;BME280;49567;48.958;8.294;2023-04-06T08:21:45;100647.31;;;8.76;50.46
63439;BME280;49567;48.958;8.294;2023-04-06T08:24:11;100651.78;;;9.12;49.20
63439;BME280;49567;48.958;8.294;2023-04-06T08:26:37;100644.38;;;9.08;49.48
63439;BME280;49567;48.958;8.294;2023-04-06T08:29:02;100648.38;;;9.05;49.36
63439;BME280;49567;48.958;8.294;2023-04-06T08:31:29;100651.88;;;9.06;49.17
63439;BME280;49567;48.958;8.294;2023-04-06T08:33:55;100645.13;;;9.15;48.91
63439;BME280;49567;48.958;8.294;2023-04-06T08:36:20;100651.84;;;9.24;49.15
63439;BME280;49567;48.958;8.294;2023-04-06T08:38:48;100651.94;;;9.29;48.55
63439;BME280;49567;48.958;8.294;2023-04-06T08:41:14;100644.09;;;9.39;48.87
63439;BME280;49567;48.958;8.294;2023-04-06T08:43:44;100641.06;;;9.47;48.77
63439;BME280;49567;48.958;8.294;2023-04-06T08:46:12;100645.91;;;9.57;47.99
63439;BME280;49567;48.958;8.294;2023-04-06T08:48:38;100642.97;;;9.70;48.21
63439;BME280;49567;48.958;8.294;2023-04-06T08:51:05;100637.31;;;9.83;47.45
63439;BME280;49567;48.958;8.294;2023-04-06T08:53:30;100639.56;;;9.98;47.50
63439;BME280;49567;48.958;8.294;2023-04-06T08:55:58;100634.69;;;10.11;46.85
63439;BME280;49567;48.958;8.294;2023-04-06T08:58:24;100636.47;;;10.29;46.60
63439;BME280;49567;48.958;8.294;2023-04-06T09:00:50;100638.78;;;10.49;46.19
63439;BME280;49567;48.958;8.294;2023-04-06T09:03:18;100631.97;;;10.74;45.73
63439;BME280;49567;48.958;8.294;2023-04-06T09:05:46;100631.16;;;11.02;44.84
63439;BME280;49567;48.958;8.294;2023-04-06T09:08:11;100638.59;;;11.40;44.08
63439;BME280;49567;48.958;8.294;2023-04-06T09:10:40;100644.38;;;11.93;43.60
63439;BME280;49567;48.958;8.294;2023-04-06T09:13:06;100635.50;;;12.20;42.96
63439;BME280;49567;48.958;8.294;2023-04-06T09:15:32;100639.38;;;12.45;42.08
63439;BME280;49567;48.958;8.294;2023-04-06T09:17:58;100636.94;;;12.92;41.21
63439;BME280;49567;48.958;8.294;2023-04-06T09:20:24;100640.19;;;13.43;40.25
63439;BME280;49567;48.958;8.294;2023-04-06T09:22:55;100635.84;;;13.47;39.48
63439;BME280;49567;48.958;8.294;2023-04-06T09:25:22;100642.34;;;13.41;39.25
63439;BME280;49567;48.958;8.294;2023-04-06T09:27:49;100637.78;;;13.46;39.38
63439;BME280;49567;48.958;8.294;2023-04-06T09:30:22;100638.50;;;13.69;39.14
63439;BME280;49567;48.958;8.294;2023-04-06T09:32:51;100628.81;;;13.83;39.44
63439;BME280;49567;48.958;8.294;2023-04-06T09:35:17;100630.91;;;14.13;39.83
63439;BME280;49567;48.958;8.294;2023-04-06T09:37:46;100627.09;;;14.76;37.91
63439;BME280;49567;48.958;8.294;2023-04-06T09:40:12;100627.00;;;15.63;36.48
63439;BME280;49567;48.958;8.294;2023-04-06T09:42:41;100621.31;;;16.44;34.80
63439;BME280;49567;48.958;8.294;2023-04-06T09:45:07;100627.06;;;16.57;34.72
63439;BME280;49567;48.958;8.294;2023-04-06T09:47:32;100627.88;;;16.58;34.52
63439;BME280;49567;48.958;8.294;2023-04-06T09:49:59;100617.28;;;16.95;34.09
63439;BME280;49567;48.958;8.294;2023-04-06T09:52:40;100620.44;;;17.12;33.50
63439;BME280;49567;48.958;8.294;2023-04-06T09:55:07;100623.28;;;16.97;33.57
63439;BME280;49567;48.958;8.294;2023-04-06T09:57:50;100625.94;;;17.51;32.26
63439;BME280;49567;48.958;8.294;2023-04-06T10:00:25;100623.06;;;17.95;32.27
63439;BME280;49567;48.958;8.294;2023-04-06T10:02:58;100618.16;;;18.87;31.19
63439;BME280;49567;48.958;8.294;2023-04-06T10:05:37;100623.38;;;19.77;30.39
63439;BME280;49567;48.958;8.294;2023-04-06T10:08:09;100627.03;;;20.59;29.70
63439;BME280;49567;48.958;8.294;2023-04-06T10:10:35;100629.81;;;21.09;27.91
63439;BME280;49567;48.958;8.294;2023-04-06T10:13:00;100628.88;;;21.71;27.12
63439;BME280;49567;48.958;8.294;2023-04-06T10:15:27;100623.59;;;22.45;26.07
63439;BME280;49567;48.958;8.294;2023-04-06T10:17:53;100622.28;;;23.08;25.33
63439;BME280;49567;48.958;8.294;2023-04-06T10:20:35;100626.69;;;23.60;24.77
63439;BME280;49567;48.958;8.294;2023-04-06T10:26:02;100621.22;;;24.83;23.03
63439;BME280;49567;48.958;8.294;2023-04-06T10:28:32;100627.66;;;25.37;21.82
63439;BME280;49567;48.958;8.294;2023-04-06T10:30:59;100627.53;;;25.54;20.96
63439;BME280;49567;48.958;8.294;2023-04-06T10:33:25;100619.22;;;24.92;21.74
63439;BME280;49567;48.958;8.294;2023-04-06T10:35:51;100615.63;;;24.62;21.51
63439;BME280;49567;48.958;8.294;2023-04-06T10:38:16;100620.38;;;25.11;21.49
63439;BME280;49567;48.958;8.294;2023-04-06T10:40:46;100612.25;;;25.80;20.32
63439;BME280;49567;48.958;8.294;2023-04-06T10:43:19;100612.50;;;25.88;19.85
63439;BME280;49567;48.958;8.294;2023-04-06T10:45:55;100609.13;;;26.63;18.82
63439;BME280;49567;48.958;8.294;2023-04-06T10:48:20;100605.41;;;26.35;18.90
63439;BME280;49567;48.958;8.294;2023-04-06T10:50:53;100612.72;;;26.52;18.51
63439;BME280;49567;48.958;8.294;2023-04-06T10:53:26;100601.81;;;26.71;18.56
63439;BME280;49567;48.958;8.294;2023-04-06T10:55:54;100601.72;;;26.55;18.49
63439;BME280;49567;48.958;8.294;2023-04-06T10:58:24;100598.72;;;26.24;18.03
63439;BME280;49567;48.958;8.294;2023-04-06T11:00:50;100595.09;;;26.11;18.94
63439;BME280;49567;48.958;8.294;2023-04-06T11:03:16;100593.38;;;26.67;17.72
63439;BME280;49567;48.958;8.294;2023-04-06T11:05:45;100583.16;;;27.23;17.65
63439;BME280;49567;48.958;8.294;2023-04-06T11:08:29;100579.22;;;26.72;17.77
63439;BME280;49567;48.958;8.294;2023-04-06T11:11:09;100581.56;;;26.46;18.41
63439;BME280;49567;48.958;8.294;2023-04-06T11:13:42;100574.09;;;26.99;18.25
63439;BME280;49567;48.958;8.294;2023-04-06T11:18:50;100577.22;;;25.88;17.75
63439;BME280;49567;48.958;8.294;2023-04-06T11:21:15;100580.63;;;25.61;18.35
63439;BME280;49567;48.958;8.294;2023-04-06T11:23:41;100570.13;;;25.78;18.56
63439;BME280;49567;48.958;8.294;2023-04-06T11:26:11;100566.88;;;25.64;18.78
63439;BME280;49567;48.958;8.294;2023-04-06T11:28:42;100564.78;;;25.08;19.04
63439;BME280;49567;48.958;8.294;2023-04-06T11:31:09;100552.69;;;24.92;19.22
63439;BME280;49567;48.958;8.294;2023-04-06T11:33:37;100555.72;;;24.49;18.46
63439;BME280;49567;48.958;8.294;2023-04-06T11:36:03;100559.78;;;24.22;19.95
63439;BME280;49567;48.958;8.294;2023-04-06T11:38:29;100558.81;;;24.97;19.45
63439;BME280;49567;48.958;8.294;2023-04-06T11:40:55;100539.88;;;24.78;19.50
63439;BME280;49567;48.958;8.294;2023-04-06T11:43:28;100543.69;;;24.95;19.57
63439;BME280;49567;48.958;8.294;2023-04-06T11:46:02;100536.63;;;25.18;19.54
63439;BME280;49567;48.958;8.294;2023-04-06T11:48:28;100543.53;;;25.12;19.31
63439;BME280;49567;48.958;8.294;2023-04-06T11:50:58;100544.09;;;25.05;18.97
63439;BME280;49567;48.958;8.294;2023-04-06T11:53:26;100537.56;;;25.22;18.89
63439;BME280;49567;48.958;8.294;2023-04-06T11:55:51;100541.97;;;25.56;18.77
63439;BME280;49567;48.958;8.294;2023-04-06T11:58:16;100532.94;;;25.92;18.54
63439;BME280;49567;48.958;8.294;2023-04-06T12:00:43;100533.25;;;25.78;18.40
63439;BME280;49567;48.958;8.294;2023-04-06T12:03:11;100535.84;;;25.50;18.40
63439;BME280;49567;48.958;8.294;2023-04-06T12:05:37;100530.47;;;25.45;18.64
63439;BME280;49567;48.958;8.294;2023-04-06T12:08:02;100523.63;;;25.63;18.13
63439;BME280;49567;48.958;8.294;2023-04-06T12:10:27;100533.00;;;25.83;17.78
63439;BME280;49567;48.958;8.294;2023-04-06T12:12:52;100525.00;;;25.37;17.23
63439;BME280;49567;48.958;8.294;2023-04-06T12:15:18;100526.13;;;25.03;17.19
63439;BME280;49567;48.958;8.294;2023-04-06T12:17:43;100523.41;;;25.80;17.23
63439;BME280;49567;48.958;8.294;2023-04-06T12:20:09;100519.94;;;25.84;16.33
63439;BME280;49567;48.958;8.294;2023-04-06T12:22:34;100517.50;;;25.70;16.53
63439;BME280;49567;48.958;8.294;2023-04-06T12:25:01;100510.69;;;25.67;16.09
63439;BME280;49567;48.958;8.294;2023-04-06T12:27:26;100506.28;;;25.01;16.99
63439;BME280;49567;48.958;8.294;2023-04-06T12:29:53;100508.78;;;25.59;17.20
63439;BME280;49567;48.958;8.294;2023-04-06T12:32:19;100515.31;;;26.00;16.61
63439;BME280;49567;48.958;8.294;2023-04-06T12:34:44;100507.56;;;25.81;17.11
63439;BME280;49567;48.958;8.294;2023-04-06T12:37:09;100501.84;;;25.53;16.50
63439;BME280;49567;48.958;8.294;2023-04-06T12:39:34;100503.59;;;25.25;16.91
63439;BME280;49567;48.958;8.294;2023-04-06T12:42:00;100504.50;;;25.50;16.71
63439;BME280;49567;48.958;8.294;2023-04-06T12:44:26;100501.53;;;25.55;15.19
63439;BME280;49567;48.958;8.294;2023-04-06T12:46:51;100503.38;;;25.63;15.78
63439;BME280;49567;48.958;8.294;2023-04-06T12:49:17;100503.97;;;25.80;15.77
63439;BME280;49567;48.958;8.294;2023-04-06T12:51:50;100499.44;;;24.98;15.21
63439;BME280;49567;48.958;8.294;2023-04-06T12:54:15;100490.38;;;24.48;16.37
63439;BME280;49567;48.958;8.294;2023-04-06T12:56:40;100483.44;;;24.12;16.26
63439;BME280;49567;48.958;8.294;2023-04-06T12:59:06;100487.88;;;23.96;16.53